sensor_id;sensor_type;location;lat;lon;timestamp;temperature;humidity
64817;DHT22;53289;45.602;11.904;2023-03-02T00:01:25;7.30;76.80
64817;DHT22;53289;45.602;11.904;2023-03-02T00:03:51;7.20;76.80
64817;DHT22;53289;45.602;11.904;2023-03-02T00:06:17;7.20;76.60
64817;DHT22;53289;45.602;11.904;2023-03-02T00:08:44;7.20;76.60
64817;DHT22;53289;45.602;11.904;2023-03-02T00:11:10;7.30;76.40
64817;DHT22;53289;45.602;11.904;2023-03-02T00:13:37;7.30;76.40
64817;DHT22;53289;45.602;11.904;2023-03-02T00:16:04;7.20;76.50
64817;DHT22;53289;45.602;11.904;2023-03-02T00:18:30;7.20;76.50
64817;DHT22;53289;45.602;11.904;2023-03-02T00:20:56;7.20;76.60
64817;DHT22;53289;45.602;11.904;2023-03-02T00:23:21;7.20;76.70
64817;DHT22;53289;45.602;11.904;2023-03-02T00:25:47;7.20;76.60
64817;DHT22;53289;45.602;11.904;2023-03-02T00:28:13;7.20;76.80
64817;DHT22;53289;45.602;11.904;2023-03-02T00:30:39;7.20;76.70
64817;DHT22;53289;45.602;11.904;2023-03-02T00:33:05;7.10;76.60
64817;DHT22;53289;45.602;11.904;2023-03-02T00:35:36;7.10;76.60
64817;DHT22;53289;45.602;11.904;2023-03-02T00:38:03;7.10;76.60
64817;DHT22;53289;45.602;11.904;2023-03-02T00:40:29;7.10;76.60
64817;DHT22;53289;45.602;11.904;2023-03-02T00:42:55;7.00;76.70
64817;DHT22;53289;45.602;11.904;2023-03-02T00:45:21;7.00;76.70
64817;DHT22;53289;45.602;11.904;2023-03-02T00:47:46;6.90;76.80
64817;DHT22;53289;45.602;11.904;2023-03-02T00:50:12;6.90;76.80
64817;DHT22;53289;45.602;11.904;2023-03-02T00:52:38;6.80;76.80
64817;DHT22;53289;45.602;11.904;2023-03-02T00:55:04;6.80;76.90
64817;DHT22;53289;45.602;11.904;2023-03-02T00:57:30;6.70;76.90
64817;DHT22;53289;45.602;11.904;2023-03-02T00:59:56;6.70;77.00
64817;DHT22;53289;45.602;11.904;2023-03-02T01:02:22;6.60;77.00
64817;DHT22;53289;45.602;11.904;2023-03-02T01:04:48;6.70;77.00
64817;DHT22;53289;45.602;11.904;2023-03-02T01:07:17;6.70;76.90
64817;DHT22;53289;45.602;11.904;2023-03-02T01:09:45;6.60;76.90
64817;DHT22;53289;45.602;11.904;2023-03-02T01:12:13;6.60;76.90
64817;DHT22;53289;45.602;11.904;2023-03-02T01:14:43;6.60;76.90
64817;DHT22;53289;45.602;11.904;2023-03-02T01:17:10;6.60;77.00
64817;DHT22;53289;45.602;11.904;2023-03-02T01:19:37;6.70;77.00
64817;DHT22;53289;45.602;11.904;2023-03-02T01:22:04;6.60;76.90
64817;DHT22;53289;45.602;11.904;2023-03-02T01:24:30;6.60;76.90
64817;DHT22;53289;45.602;11.904;2023-03-02T01:26:56;6.60;77.00
64817;DHT22;53289;45.602;11.904;2023-03-02T01:29:22;6.70;77.00
64817;DHT22;53289;45.602;11.904;2023-03-02T01:31:48;6.70;76.90
64817;DHT22;53289;45.602;11.904;2023-03-02T01:34:14;6.70;77.00
64817;DHT22;53289;45.602;11.904;2023-03-02T01:36:40;6.70;76.90
64817;DHT22;53289;45.602;11.904;2023-03-02T01:39:11;6.70;76.90
64817;DHT22;53289;45.602;11.904;2023-03-02T01:41:44;6.70;76.90
64817;DHT22;53289;45.602;11.904;2023-03-02T01:44:33;6.70;77.00
64817;DHT22;53289;45.602;11.904;2023-03-02T01:46:59;6.60;77.00
64817;DHT22;53289;45.602;11.904;2023-03-02T01:49:26;6.70;77.00
64817;DHT22;53289;45.602;11.904;2023-03-02T01:51:52;6.60;77.00
64817;DHT22;53289;45.602;11.904;2023-03-02T01:54:21;6.60;77.00
64817;DHT22;53289;45.602;11.904;2023-03-02T01:56:51;6.60;76.90
64817;DHT22;53289;45.602;11.904;2023-03-02T01:59:19;6.60;76.90
64817;DHT22;53289;45.602;11.904;2023-03-02T02:01:51;6.60;76.90
64817;DHT22;53289;45.602;11.904;2023-03-02T02:04:18;6.60;76.90
64817;DHT22;53289;45.602;11.904;2023-03-02T02:06:57;6.50;76.90
64817;DHT22;53289;45.602;11.904;2023-03-02T02:09:25;6.40;76.90
64817;DHT22;53289;45.602;11.904;2023-03-02T02:11:52;6.40;77.00
64817;DHT22;53289;45.602;11.904;2023-03-02T02:14:18;6.40;77.00
64817;DHT22;53289;45.602;11.904;2023-03-02T02:16:45;6.40;77.00
64817;DHT22;53289;45.602;11.904;2023-03-02T02:21:39;6.30;77.00
64817;DHT22;53289;45.602;11.904;2023-03-02T02:26:42;6.20;77.10
64817;DHT22;53289;45.602;11.904;2023-03-02T02:29:20;6.10;77.10
64817;DHT22;53289;45.602;11.904;2023-03-02T02:37:14;5.90;77.40
64817;DHT22;53289;45.602;11.904;2023-03-02T02:39:45;5.80;77.50
64817;DHT22;53289;45.602;11.904;2023-03-02T02:42:15;5.80;77.60
64817;DHT22;53289;45.602;11.904;2023-03-02T02:44:42;5.80;77.70
64817;DHT22;53289;45.602;11.904;2023-03-02T02:47:18;5.80;77.70
64817;DHT22;53289;45.602;11.904;2023-03-02T02:49:47;5.80;77.60
64817;DHT22;53289;45.602;11.904;2023-03-02T02:52:17;5.90;77.70
64817;DHT22;53289;45.602;11.904;2023-03-02T02:54:46;5.90;77.70
64817;DHT22;53289;45.602;11.904;2023-03-02T02:57:13;6.00;77.60
64817;DHT22;53289;45.602;11.904;2023-03-02T02:59:54;6.00;77.50
64817;DHT22;53289;45.602;11.904;2023-03-02T03:02:23;6.00;77.30
64817;DHT22;53289;45.602;11.904;2023-03-02T03:04:50;6.00;77.20
64817;DHT22;53289;45.602;11.904;2023-03-02T03:07:21;6.00;77.10
64817;DHT22;53289;45.602;11.904;2023-03-02T03:12:23;6.10;76.90
64817;DHT22;53289;45.602;11.904;2023-03-02T03:14:50;6.00;76.80
64817;DHT22;53289;45.602;11.904;2023-03-02T03:17:16;6.10;76.80
64817;DHT22;53289;45.602;11.904;2023-03-02T03:19:43;6.10;76.80
64817;DHT22;53289;45.602;11.904;2023-03-02T03:22:11;6.20;76.70
64817;DHT22;53289;45.602;11.904;2023-03-02T03:24:38;6.20;76.70
64817;DHT22;53289;45.602;11.904;2023-03-02T03:27:05;6.20;76.40
64817;DHT22;53289;45.602;11.904;2023-03-02T03:29:32;6.20;76.50
64817;DHT22;53289;45.602;11.904;2023-03-02T03:32:00;6.20;76.40
64817;DHT22;53289;45.602;11.904;2023-03-02T03:34:28;6.20;75.80
64817;DHT22;53289;45.602;11.904;2023-03-02T03:36:55;6.30;76.00
64817;DHT22;53289;45.602;11.904;2023-03-02T03:39:29;6.30;75.80
64817;DHT22;53289;45.602;11.904;2023-03-02T03:41:55;6.30;75.70
64817;DHT22;53289;45.602;11.904;2023-03-02T03:44:22;6.30;75.70
64817;DHT22;53289;45.602;11.904;2023-03-02T03:46:48;6.30;75.50
64817;DHT22;53289;45.602;11.904;2023-03-02T03:49:14;6.30;75.50
64817;DHT22;53289;45.602;11.904;2023-03-02T03:51:39;6.30;75.40
64817;DHT22;53289;45.602;11.904;2023-03-02T03:54:07;6.30;75.30
64817;DHT22;53289;45.602;11.904;2023-03-02T03:56:39;6.30;75.30
64817;DHT22;53289;45.602;11.904;2023-03-02T03:59:07;6.30;75.10
64817;DHT22;53289;45.602;11.904;2023-03-02T04:04:02;6.30;75.10
64817;DHT22;53289;45.602;11.904;2023-03-02T04:06:28;6.30;75.10
64817;DHT22;53289;45.602;11.904;2023-03-02T04:08:54;6.30;75.10
64817;DHT22;53289;45.602;11.904;2023-03-02T04:11:20;6.30;75.10
64817;DHT22;53289;45.602;11.904;2023-03-02T04:13:45;6.30;75.10
64817;DHT22;53289;45.602;11.904;2023-03-02T04:16:11;6.20;75.10
64817;DHT22;53289;45.602;11.904;2023-03-02T04:18:37;6.20;75.20
64817;DHT22;53289;45.602;11.904;2023-03-02T04:21:03;6.20;75.20
64817;DHT22;53289;45.602;11.904;2023-03-02T04:23:29;6.20;75.20
64817;DHT22;53289;45.602;11.904;2023-03-02T04:25:55;6.10;75.30
64817;DHT22;53289;45.602;11.904;2023-03-02T04:28:20;6.20;75.20
64817;DHT22;53289;45.602;11.904;2023-03-02T04:30:46;6.20;75.20
64817;DHT22;53289;45.602;11.904;2023-03-02T04:33:12;6.10;75.10
64817;DHT22;53289;45.602;11.904;2023-03-02T04:35:38;6.10;75.10
64817;DHT22;53289;45.602;11.904;2023-03-02T04:38:04;6.10;75.10
64817;DHT22;53289;45.602;11.904;2023-03-02T04:40:30;6.10;75.20
64817;DHT22;53289;45.602;11.904;2023-03-02T04:42:56;6.00;75.30
64817;DHT22;53289;45.602;11.904;2023-03-02T04:45:22;6.00;75.40
64817;DHT22;53289;45.602;11.904;2023-03-02T04:47:48;6.00;75.40
64817;DHT22;53289;45.602;11.904;2023-03-02T04:50:14;6.10;75.30
64817;DHT22;53289;45.602;11.904;2023-03-02T04:52:41;6.10;75.30
64817;DHT22;53289;45.602;11.904;2023-03-02T04:55:07;6.20;75.20
64817;DHT22;53289;45.602;11.904;2023-03-02T04:57:33;6.20;75.40
64817;DHT22;53289;45.602;11.904;2023-03-02T04:59:59;6.30;75.20
64817;DHT22;53289;45.602;11.904;2023-03-02T05:02:25;6.30;75.20
64817;DHT22;53289;45.602;11.904;2023-03-02T05:04:51;6.30;75.50
64817;DHT22;53289;45.602;11.904;2023-03-02T05:07:17;6.40;75.40
64817;DHT22;53289;45.602;11.904;2023-03-02T05:09:43;6.40;75.50
64817;DHT22;53289;45.602;11.904;2023-03-02T05:12:09;6.40;75.20
64817;DHT22;53289;45.602;11.904;2023-03-02T05:14:35;6.40;75.00
64817;DHT22;53289;45.602;11.904;2023-03-02T05:17:01;6.40;74.80
64817;DHT22;53289;45.602;11.904;2023-03-02T05:19:27;6.50;74.80
64817;DHT22;53289;45.602;11.904;2023-03-02T05:21:53;6.50;74.80
64817;DHT22;53289;45.602;11.904;2023-03-02T05:24:18;6.50;74.80
64817;DHT22;53289;45.602;11.904;2023-03-02T05:26:44;6.50;74.80
64817;DHT22;53289;45.602;11.904;2023-03-02T05:29:10;6.50;74.90
64817;DHT22;53289;45.602;11.904;2023-03-02T05:31:39;6.60;75.00
64817;DHT22;53289;45.602;11.904;2023-03-02T05:34:09;6.50;75.10
64817;DHT22;53289;45.602;11.904;2023-03-02T05:36:35;6.50;75.00
64817;DHT22;53289;45.602;11.904;2023-03-02T05:39:02;6.50;74.90
64817;DHT22;53289;45.602;11.904;2023-03-02T05:41:28;6.50;75.00
64817;DHT22;53289;45.602;11.904;2023-03-02T05:43:54;6.50;75.10
64817;DHT22;53289;45.602;11.904;2023-03-02T05:46:20;6.50;75.00
64817;DHT22;53289;45.602;11.904;2023-03-02T05:48:46;6.50;74.90
64817;DHT22;53289;45.602;11.904;2023-03-02T05:51:12;6.40;75.10
64817;DHT22;53289;45.602;11.904;2023-03-02T05:53:37;6.40;75.10
64817;DHT22;53289;45.602;11.904;2023-03-02T05:56:04;6.40;75.10
64817;DHT22;53289;45.602;11.904;2023-03-02T05:58:30;6.40;75.00
64817;DHT22;53289;45.602;11.904;2023-03-02T06:00:55;6.30;75.10
64817;DHT22;53289;45.602;11.904;2023-03-02T06:03:21;6.30;75.10
64817;DHT22;53289;45.602;11.904;2023-03-02T06:05:47;6.30;75.10
64817;DHT22;53289;45.602;11.904;2023-03-02T06:08:16;6.20;75.20
64817;DHT22;53289;45.602;11.904;2023-03-02T06:10:43;6.20;75.20
64817;DHT22;53289;45.602;11.904;2023-03-02T06:13:09;6.20;75.20
64817;DHT22;53289;45.602;11.904;2023-03-02T06:15:35;6.20;75.50
64817;DHT22;53289;45.602;11.904;2023-03-02T06:18:02;6.30;75.40
64817;DHT22;53289;45.602;11.904;2023-03-02T06:20:28;6.20;75.40
64817;DHT22;53289;45.602;11.904;2023-03-02T06:22:53;6.30;75.30
64817;DHT22;53289;45.602;11.904;2023-03-02T06:25:21;6.40;75.70
64817;DHT22;53289;45.602;11.904;2023-03-02T06:27:48;6.50;75.90
64817;DHT22;53289;45.602;11.904;2023-03-02T06:30:17;6.70;75.70
64817;DHT22;53289;45.602;11.904;2023-03-02T06:32:44;6.90;75.60
64817;DHT22;53289;45.602;11.904;2023-03-02T06:35:11;7.00;75.60
64817;DHT22;53289;45.602;11.904;2023-03-02T06:37:38;7.10;75.40
64817;DHT22;53289;45.602;11.904;2023-03-02T06:40:05;7.30;75.50
64817;DHT22;53289;45.602;11.904;2023-03-02T06:42:33;7.40;75.30
64817;DHT22;53289;45.602;11.904;2023-03-02T06:44:58;7.50;75.50
64817;DHT22;53289;45.602;11.904;2023-03-02T06:47:24;7.60;75.60
64817;DHT22;53289;45.602;11.904;2023-03-02T06:49:50;7.90;75.70
64817;DHT22;53289;45.602;11.904;2023-03-02T06:52:16;8.20;75.30
64817;DHT22;53289;45.602;11.904;2023-03-02T06:54:42;8.50;75.20
64817;DHT22;53289;45.602;11.904;2023-03-02T06:57:08;8.90;74.50
64817;DHT22;53289;45.602;11.904;2023-03-02T06:59:34;9.20;73.70
64817;DHT22;53289;45.602;11.904;2023-03-02T07:02:00;9.50;73.10
64817;DHT22;53289;45.602;11.904;2023-03-02T07:04:26;9.70;72.80
64817;DHT22;53289;45.602;11.904;2023-03-02T07:06:54;10.00;69.20
64817;DHT22;53289;45.602;11.904;2023-03-02T07:09:20;10.20;67.10
64817;DHT22;53289;45.602;11.904;2023-03-02T07:11:47;10.30;68.30
64817;DHT22;53289;45.602;11.904;2023-03-02T07:14:13;10.30;66.00
64817;DHT22;53289;45.602;11.904;2023-03-02T07:16:38;10.30;67.60
64817;DHT22;53289;45.602;11.904;2023-03-02T07:19:04;10.30;67.60
64817;DHT22;53289;45.602;11.904;2023-03-02T07:21:30;10.30;68.10
64817;DHT22;53289;45.602;11.904;2023-03-02T07:23:56;10.30;68.00
64817;DHT22;53289;45.602;11.904;2023-03-02T07:26:22;10.40;65.90
64817;DHT22;53289;45.602;11.904;2023-03-02T07:28:47;10.60;67.40
64817;DHT22;53289;45.602;11.904;2023-03-02T07:31:13;10.80;65.20
64817;DHT22;53289;45.602;11.904;2023-03-02T07:33:39;10.90;64.30
64817;DHT22;53289;45.602;11.904;2023-03-02T07:36:06;11.00;64.10
64817;DHT22;53289;45.602;11.904;2023-03-02T07:38:32;11.10;62.00
64817;DHT22;53289;45.602;11.904;2023-03-02T07:40:58;10.90;63.90
64817;DHT22;53289;45.602;11.904;2023-03-02T07:43:24;10.90;62.90
64817;DHT22;53289;45.602;11.904;2023-03-02T07:45:53;11.10;63.60
64817;DHT22;53289;45.602;11.904;2023-03-02T07:48:18;11.40;62.80
64817;DHT22;53289;45.602;11.904;2023-03-02T07:50:45;11.50;60.60
64817;DHT22;53289;45.602;11.904;2023-03-02T07:53:11;11.60;59.70
64817;DHT22;53289;45.602;11.904;2023-03-02T07:55:40;11.70;59.80
64817;DHT22;53289;45.602;11.904;2023-03-02T07:58:06;11.60;61.90
64817;DHT22;53289;45.602;11.904;2023-03-02T08:00:32;11.70;61.20
64817;DHT22;53289;45.602;11.904;2023-03-02T08:02:58;11.90;60.70
64817;DHT22;53289;45.602;11.904;2023-03-02T08:05:24;12.00;58.60
64817;DHT22;53289;45.602;11.904;2023-03-02T08:07:50;12.10;60.50
64817;DHT22;53289;45.602;11.904;2023-03-02T08:10:17;12.20;59.90
64817;DHT22;53289;45.602;11.904;2023-03-02T08:12:42;12.40;58.70
64817;DHT22;53289;45.602;11.904;2023-03-02T08:15:09;12.20;58.10
64817;DHT22;53289;45.602;11.904;2023-03-02T08:17:35;12.00;58.50
64817;DHT22;53289;45.602;11.904;2023-03-02T08:20:01;11.90;58.70
64817;DHT22;53289;45.602;11.904;2023-03-02T08:22:28;11.90;59.40
64817;DHT22;53289;45.602;11.904;2023-03-02T08:24:55;11.70;59.50
64817;DHT22;53289;45.602;11.904;2023-03-02T08:27:21;11.50;58.70
64817;DHT22;53289;45.602;11.904;2023-03-02T08:29:46;11.50;60.30
64817;DHT22;53289;45.602;11.904;2023-03-02T08:32:12;11.60;60.10
64817;DHT22;53289;45.602;11.904;2023-03-02T08:34:38;11.60;59.90
64817;DHT22;53289;45.602;11.904;2023-03-02T08:37:04;11.60;59.90
64817;DHT22;53289;45.602;11.904;2023-03-02T08:39:30;11.50;59.30
64817;DHT22;53289;45.602;11.904;2023-03-02T08:41:56;11.50;59.50
64817;DHT22;53289;45.602;11.904;2023-03-02T08:44:22;11.40;59.80
64817;DHT22;53289;45.602;11.904;2023-03-02T08:46:49;11.10;60.70
64817;DHT22;53289;45.602;11.904;2023-03-02T08:49:16;11.20;61.00
64817;DHT22;53289;45.602;11.904;2023-03-02T08:51:42;11.30;60.30
64817;DHT22;53289;45.602;11.904;2023-03-02T08:54:09;11.30;59.80
64817;DHT22;53289;45.602;11.904;2023-03-02T08:56:36;11.40;60.20
64817;DHT22;53289;45.602;11.904;2023-03-02T08:59:05;11.40;61.10
64817;DHT22;53289;45.602;11.904;2023-03-02T09:01:34;11.40;61.30
64817;DHT22;53289;45.602;11.904;2023-03-02T09:04:00;11.30;60.80
64817;DHT22;53289;45.602;11.904;2023-03-02T09:06:28;11.10;60.60
64817;DHT22;53289;45.602;11.904;2023-03-02T09:08:55;11.20;61.30
64817;DHT22;53289;45.602;11.904;2023-03-02T09:11:21;11.10;61.90
64817;DHT22;53289;45.602;11.904;2023-03-02T09:13:47;11.00;63.10
64817;DHT22;53289;45.602;11.904;2023-03-02T09:16:13;10.90;62.50
64817;DHT22;53289;45.602;11.904;2023-03-02T09:18:39;11.10;63.90
64817;DHT22;53289;45.602;11.904;2023-03-02T09:21:05;11.00;61.80
64817;DHT22;53289;45.602;11.904;2023-03-02T09:23:32;10.90;63.30
64817;DHT22;53289;45.602;11.904;2023-03-02T09:25:58;10.80;63.40
64817;DHT22;53289;45.602;11.904;2023-03-02T09:28:24;10.80;62.60
64817;DHT22;53289;45.602;11.904;2023-03-02T09:30:51;10.70;63.20
64817;DHT22;53289;45.602;11.904;2023-03-02T09:33:18;10.70;63.20
64817;DHT22;53289;45.602;11.904;2023-03-02T09:35:45;10.60;61.80
64817;DHT22;53289;45.602;11.904;2023-03-02T09:38:13;10.60;63.50
64817;DHT22;53289;45.602;11.904;2023-03-02T09:46:33;10.50;63.80
64817;DHT22;53289;45.602;11.904;2023-03-02T09:51:39;10.50;63.90
64817;DHT22;53289;45.602;11.904;2023-03-02T09:54:16;10.50;63.70
64817;DHT22;53289;45.602;11.904;2023-03-02T09:56:57;10.50;64.00
64817;DHT22;53289;45.602;11.904;2023-03-02T09:59:38;10.50;64.20
64817;DHT22;53289;45.602;11.904;2023-03-02T10:04:46;10.30;65.00
64817;DHT22;53289;45.602;11.904;2023-03-02T10:07:25;10.30;65.20
64817;DHT22;53289;45.602;11.904;2023-03-02T10:09:51;10.30;65.00
64817;DHT22;53289;45.602;11.904;2023-03-02T10:14:54;10.40;64.80
64817;DHT22;53289;45.602;11.904;2023-03-02T10:17:36;10.50;65.20
64817;DHT22;53289;45.602;11.904;2023-03-02T10:20:10;10.50;66.10
64817;DHT22;53289;45.602;11.904;2023-03-02T10:22:45;10.50;66.70
64817;DHT22;53289;45.602;11.904;2023-03-02T10:28:13;10.70;66.20
64817;DHT22;53289;45.602;11.904;2023-03-02T10:30:41;10.70;66.30
64817;DHT22;53289;45.602;11.904;2023-03-02T10:33:14;10.80;66.70
64817;DHT22;53289;45.602;11.904;2023-03-02T10:35:48;10.90;66.10
64817;DHT22;53289;45.602;11.904;2023-03-02T10:40:49;11.20;65.50
64817;DHT22;53289;45.602;11.904;2023-03-02T10:46:00;11.40;64.50
64817;DHT22;53289;45.602;11.904;2023-03-02T10:48:27;11.40;64.10
64817;DHT22;53289;45.602;11.904;2023-03-02T10:50:54;11.50;64.60
64817;DHT22;53289;45.602;11.904;2023-03-02T10:53:20;11.60;64.20
64817;DHT22;53289;45.602;11.904;2023-03-02T10:55:49;11.80;64.10
64817;DHT22;53289;45.602;11.904;2023-03-02T11:01:01;11.90;62.60
64817;DHT22;53289;45.602;11.904;2023-03-02T11:03:28;11.90;62.50
64817;DHT22;53289;45.602;11.904;2023-03-02T11:05:56;11.90;62.60
64817;DHT22;53289;45.602;11.904;2023-03-02T11:08:24;11.90;62.30
64817;DHT22;53289;45.602;11.904;2023-03-02T11:10:54;11.90;61.50
64817;DHT22;53289;45.602;11.904;2023-03-02T11:13:31;11.90;62.20
64817;DHT22;53289;45.602;11.904;2023-03-02T11:15:59;12.00;61.30
64817;DHT22;53289;45.602;11.904;2023-03-02T11:18:34;12.00;61.50
64817;DHT22;53289;45.602;11.904;2023-03-02T11:21:52;12.10;61.60
64817;DHT22;53289;45.602;11.904;2023-03-02T11:24:14;12.30;60.70
64817;DHT22;53289;45.602;11.904;2023-03-02T11:26:53;12.40;60.80
64817;DHT22;53289;45.602;11.904;2023-03-02T11:34:45;12.60;60.70
64817;DHT22;53289;45.602;11.904;2023-03-02T11:42:39;12.40;61.80
64817;DHT22;53289;45.602;11.904;2023-03-02T11:45:27;12.40;61.80
64817;DHT22;53289;45.602;11.904;2023-03-02T11:50:57;12.40;62.50
64817;DHT22;53289;45.602;11.904;2023-03-02T11:56:03;12.40;61.50
64817;DHT22;53289;45.602;11.904;2023-03-02T11:58:30;12.40;61.30
64817;DHT22;53289;45.602;11.904;2023-03-02T12:00:56;12.40;61.30
64817;DHT22;53289;45.602;11.904;2023-03-02T12:03:34;12.40;61.40
64817;DHT22;53289;45.602;11.904;2023-03-02T12:06:07;12.30;61.40
64817;DHT22;53289;45.602;11.904;2023-03-02T12:09:07;12.30;61.70
64817;DHT22;53289;45.602;11.904;2023-03-02T12:11:36;12.30;60.40
64817;DHT22;53289;45.602;11.904;2023-03-02T12:14:23;12.30;61.10
64817;DHT22;53289;45.602;11.904;2023-03-02T12:16:51;12.30;61.40
64817;DHT22;53289;45.602;11.904;2023-03-02T12:19:39;12.40;60.90
64817;DHT22;53289;45.602;11.904;2023-03-02T12:22:07;12.40;60.90
64817;DHT22;53289;45.602;11.904;2023-03-02T12:24:37;12.40;60.70
64817;DHT22;53289;45.602;11.904;2023-03-02T12:27:24;12.40;60.80
64817;DHT22;53289;45.602;11.904;2023-03-02T12:30:07;12.40;60.80
64817;DHT22;53289;45.602;11.904;2023-03-02T12:32:34;12.40;60.80
64817;DHT22;53289;45.602;11.904;2023-03-02T12:35:11;12.40;60.80
64817;DHT22;53289;45.602;11.904;2023-03-02T12:40:23;12.70;60.80
64817;DHT22;53289;45.602;11.904;2023-03-02T12:54:18;13.90;57.50
64817;DHT22;53289;45.602;11.904;2023-03-02T12:56:44;14.00;57.40
64817;DHT22;53289;45.602;11.904;2023-03-02T12:59:22;14.30;56.00
64817;DHT22;53289;45.602;11.904;2023-03-02T13:01:48;14.50;56.50
64817;DHT22;53289;45.602;11.904;2023-03-02T13:04:25;14.70;55.60
64817;DHT22;53289;45.602;11.904;2023-03-02T13:06:52;14.90;53.90
64817;DHT22;53289;45.602;11.904;2023-03-02T13:09:19;14.90;55.00
64817;DHT22;53289;45.602;11.904;2023-03-02T13:11:47;15.00;55.30
64817;DHT22;53289;45.602;11.904;2023-03-02T13:14:26;15.10;55.40
64817;DHT22;53289;45.602;11.904;2023-03-02T13:16:58;15.20;55.50
64817;DHT22;53289;45.602;11.904;2023-03-02T13:19:25;15.40;54.00
64817;DHT22;53289;45.602;11.904;2023-03-02T13:21:52;15.70;53.80
64817;DHT22;53289;45.602;11.904;2023-03-02T13:26:58;16.20;52.10
64817;DHT22;53289;45.602;11.904;2023-03-02T13:29:26;16.30;52.40
64817;DHT22;53289;45.602;11.904;2023-03-02T13:31:53;16.40;51.80
64817;DHT22;53289;45.602;11.904;2023-03-02T13:34:27;16.40;52.00
64817;DHT22;53289;45.602;11.904;2023-03-02T13:36:56;16.40;51.40
64817;DHT22;53289;45.602;11.904;2023-03-02T13:39:26;16.20;52.00
64817;DHT22;53289;45.602;11.904;2023-03-02T13:41:55;16.00;52.40
64817;DHT22;53289;45.602;11.904;2023-03-02T13:44:42;15.90;52.10
64817;DHT22;53289;45.602;11.904;2023-03-02T13:47:21;15.90;52.50
64817;DHT22;53289;45.602;11.904;2023-03-02T13:49:47;15.90;51.30
64817;DHT22;53289;45.602;11.904;2023-03-02T13:52:27;15.90;52.00
64817;DHT22;53289;45.602;11.904;2023-03-02T13:54:54;15.90;52.50
64817;DHT22;53289;45.602;11.904;2023-03-02T13:57:30;16.00;52.60
64817;DHT22;53289;45.602;11.904;2023-03-02T13:59:57;16.10;52.40
64817;DHT22;53289;45.602;11.904;2023-03-02T14:02:25;16.10;52.30
64817;DHT22;53289;45.602;11.904;2023-03-02T14:04:52;16.20;52.20
64817;DHT22;53289;45.602;11.904;2023-03-02T14:07:18;16.20;51.50
64817;DHT22;53289;45.602;11.904;2023-03-02T14:09:45;16.30;51.70
64817;DHT22;53289;45.602;11.904;2023-03-02T14:12:28;16.30;52.00
64817;DHT22;53289;45.602;11.904;2023-03-02T14:14:57;16.40;51.10
64817;DHT22;53289;45.602;11.904;2023-03-02T14:17:24;16.50;51.00
64817;DHT22;53289;45.602;11.904;2023-03-02T14:19:51;16.60;51.00
64817;DHT22;53289;45.602;11.904;2023-03-02T14:22:18;16.50;50.50
64817;DHT22;53289;45.602;11.904;2023-03-02T14:24:45;16.50;50.10
64817;DHT22;53289;45.602;11.904;2023-03-02T14:27:14;16.40;50.20
64817;DHT22;53289;45.602;11.904;2023-03-02T14:29:42;16.30;50.50
64817;DHT22;53289;45.602;11.904;2023-03-02T14:32:10;16.20;50.90
64817;DHT22;53289;45.602;11.904;2023-03-02T14:34:36;15.90;50.00
64817;DHT22;53289;45.602;11.904;2023-03-02T14:37:07;15.80;50.70
64817;DHT22;53289;45.602;11.904;2023-03-02T14:39:40;15.60;51.60
64817;DHT22;53289;45.602;11.904;2023-03-02T14:42:12;15.60;52.50
64817;DHT22;53289;45.602;11.904;2023-03-02T14:44:39;15.70;52.40
64817;DHT22;53289;45.602;11.904;2023-03-02T14:47:06;15.70;52.40
64817;DHT22;53289;45.602;11.904;2023-03-02T14:49:32;15.90;50.60
64817;DHT22;53289;45.602;11.904;2023-03-02T14:53:02;16.10;51.60
64817;DHT22;53289;45.602;11.904;2023-03-02T14:54:59;16.30;50.60
64817;DHT22;53289;45.602;11.904;2023-03-02T14:57:28;16.40;50.00
64817;DHT22;53289;45.602;11.904;2023-03-02T14:59:55;16.40;49.70
64817;DHT22;53289;45.602;11.904;2023-03-02T15:02:22;16.40;50.70
64817;DHT22;53289;45.602;11.904;2023-03-02T15:04:48;16.30;49.80
64817;DHT22;53289;45.602;11.904;2023-03-02T15:07:17;16.10;49.80
64817;DHT22;53289;45.602;11.904;2023-03-02T15:09:44;16.00;49.70
64817;DHT22;53289;45.602;11.904;2023-03-02T15:12:10;15.80;50.80
64817;DHT22;53289;45.602;11.904;2023-03-02T15:14:36;15.60;50.40
64817;DHT22;53289;45.602;11.904;2023-03-02T15:17:03;15.20;50.30
64817;DHT22;53289;45.602;11.904;2023-03-02T15:19:28;14.90;50.90
64817;DHT22;53289;45.602;11.904;2023-03-02T15:21:54;14.70;52.10
64817;DHT22;53289;45.602;11.904;2023-03-02T15:24:21;14.60;53.40
64817;DHT22;53289;45.602;11.904;2023-03-02T15:26:51;14.50;53.40
64817;DHT22;53289;45.602;11.904;2023-03-02T15:29:18;14.40;53.90
64817;DHT22;53289;45.602;11.904;2023-03-02T15:31:44;14.30;54.20
64817;DHT22;53289;45.602;11.904;2023-03-02T15:34:11;14.20;53.80
64817;DHT22;53289;45.602;11.904;2023-03-02T15:36:37;14.20;54.50
64817;DHT22;53289;45.602;11.904;2023-03-02T15:39:04;14.20;54.60
64817;DHT22;53289;45.602;11.904;2023-03-02T15:41:32;14.20;53.90
64817;DHT22;53289;45.602;11.904;2023-03-02T15:44:01;14.10;54.30
64817;DHT22;53289;45.602;11.904;2023-03-02T15:46:27;14.00;55.10
64817;DHT22;53289;45.602;11.904;2023-03-02T15:48:52;14.00;55.00
64817;DHT22;53289;45.602;11.904;2023-03-02T15:51:19;14.00;54.90
64817;DHT22;53289;45.602;11.904;2023-03-02T15:53:45;14.00;55.30
64817;DHT22;53289;45.602;11.904;2023-03-02T15:56:13;13.90;55.80
64817;DHT22;53289;45.602;11.904;2023-03-02T15:58:45;13.90;55.80
64817;DHT22;53289;45.602;11.904;2023-03-02T16:01:12;13.80;55.30
64817;DHT22;53289;45.602;11.904;2023-03-02T16:03:40;13.80;56.10
64817;DHT22;53289;45.602;11.904;2023-03-02T16:06:07;13.70;56.60
64817;DHT22;53289;45.602;11.904;2023-03-02T16:08:34;13.70;57.00
64817;DHT22;53289;45.602;11.904;2023-03-02T16:11:03;13.60;57.30
64817;DHT22;53289;45.602;11.904;2023-03-02T16:13:29;13.70;57.70
64817;DHT22;53289;45.602;11.904;2023-03-02T16:15:58;13.60;57.70
64817;DHT22;53289;45.602;11.904;2023-03-02T16:18:24;13.70;57.60
64817;DHT22;53289;45.602;11.904;2023-03-02T16:20:50;13.70;57.60
64817;DHT22;53289;45.602;11.904;2023-03-02T16:23:16;13.70;57.40
64817;DHT22;53289;45.602;11.904;2023-03-02T16:25:42;13.80;57.20
64817;DHT22;53289;45.602;11.904;2023-03-02T16:28:12;13.90;57.40
64817;DHT22;53289;45.602;11.904;2023-03-02T16:30:39;14.00;57.10
64817;DHT22;53289;45.602;11.904;2023-03-02T16:33:08;14.20;57.00
64817;DHT22;53289;45.602;11.904;2023-03-02T16:35:35;14.30;56.80
64817;DHT22;53289;45.602;11.904;2023-03-02T16:38:02;14.30;56.80
64817;DHT22;53289;45.602;11.904;2023-03-02T16:40:28;14.30;56.90
64817;DHT22;53289;45.602;11.904;2023-03-02T16:42:54;14.20;56.70